Main page
METAR-TAF:

METAR-TAF

Airports :

Boa Vista International Airport

Boa Vista, Roraima, Brazil

latitude: 02-50N, longitude: 060-42W, elevation: 84 m

Current weather observation

The report was made 30 minutes ago, at 00:00 UTC
Wind 12 kt from the East
Temperature 32°C
Humidity 36%
Pressure 1009 hPa
Visibility 10 km or more
no clouds below 1500 m and no cumulonimbus

METAR: SBBV 190000Z 08012KT CAVOK 32/15 Q1009

Time: 20:30 (00:30 UTC)

Forecast

The report was made 8 hours and 30 minutes ago, at 16:00 UTC
Forecast valid from 18 at 18 UTC to 19 at 18 UTC
Wind 15 kt from the Southeast
Visibility 10 km or more
Scattered clouds at a height of 3500 ft
Becoming
from 18 at 23 UTC to 19 at 01 UTC
Wind 12 kt from the East
Visibility 10 km or more
no clouds below 1500 m and no cumulonimbus
Becoming
from 19 at 14 UTC to 19 at 16 UTC
Visibility 10 km or more
Scattered clouds at a height of 3000 ft

TAF: SBBV 181600Z 1818/1918 13015KT 9999 SCT035 TX35/1819Z TN25/1907Z BECMG 1823/1901 09012KT CAVOK BECMG 1914/1916 9999 SCT030 RMK PEM

Weather observations and forecasts of more than 4000 airports (METAR and TAF reports).

The available stations are represented by yellow and red dots on the map.

Hover mouse over dot to see the name of the station.

Then click to see weather observations and forecasts.

To change the map : click on the green buttons with a black cross to zoom in, on the green button with a dash to zoom out, or on the green arrows for adjacent maps.


METAR-TAF: